createdAt,value
2023-01-12T00:25:57.193Z,11.20
2023-01-12T00:28:24.337Z,11.30
2023-01-12T00:30:51.504Z,11.40
2023-01-12T00:33:20.389Z,14.10
2023-01-12T00:35:47.834Z,10.70
2023-01-12T00:38:14.883Z,10.90
2023-01-12T00:40:41.938Z,13.20
2023-01-12T00:43:27.826Z,13.80
2023-01-12T00:45:55.053Z,12.40
2023-01-12T00:48:23.253Z,17.40
2023-01-12T00:50:50.405Z,16.40
2023-01-12T00:53:17.455Z,15.60
2023-01-12T00:55:46.350Z,12.30
2023-01-12T00:58:13.495Z,10.20
2023-01-12T01:00:40.647Z,11.20
2023-01-12T01:03:07.803Z,11.60
2023-01-12T01:05:34.955Z,12.80
2023-01-12T01:08:04.045Z,12.40
2023-01-12T01:10:31.198Z,10.90
2023-01-12T01:12:58.349Z,10.50
2023-01-12T01:15:25.403Z,12.30
2023-01-12T01:17:52.550Z,10.50
2023-01-12T01:20:19.706Z,10.30
2023-01-12T01:22:46.753Z,10.20
2023-01-12T01:25:13.905Z,11.40
2023-01-12T01:27:41.057Z,12.10
2023-01-12T01:30:09.234Z,11.00
2023-01-12T01:32:36.340Z,11.70
2023-01-12T01:35:03.457Z,11.80
2023-01-12T01:37:31.203Z,11.40
2023-01-12T01:39:58.350Z,12.30
2023-01-12T01:42:28.521Z,12.90
2023-01-12T01:44:57.575Z,12.70
2023-01-12T01:47:50.224Z,12.40
2023-01-12T01:50:24.641Z,11.40
2023-01-12T01:53:06.234Z,11.10
2023-01-12T01:55:36.761Z,10.90
2023-01-12T01:58:09.445Z,11.50
2023-01-12T02:00:37.925Z,11.10
2023-01-12T02:03:05.315Z,11.50
2023-01-12T02:05:32.534Z,11.80
2023-01-12T06:48:12.242Z,10.90
2023-01-12T06:50:39.395Z,11.20
2023-01-12T06:53:07.359Z,11.10
2023-01-12T06:55:35.025Z,12.00
2023-01-12T06:58:03.994Z,12.20
2023-01-12T07:00:31.687Z,12.20
2023-01-12T07:02:59.043Z,11.20
2023-01-12T07:05:26.192Z,11.60
2023-01-12T07:07:58.962Z,12.30
2023-01-12T07:10:26.685Z,11.80
2023-01-12T07:12:54.102Z,12.40
2023-01-12T07:15:21.244Z,12.40
2023-01-12T07:17:48.406Z,11.90
2023-01-12T07:20:16.153Z,11.70
2023-01-12T07:22:43.519Z,11.30
2023-01-12T07:25:10.666Z,11.70
2023-01-12T07:27:37.816Z,11.90
2023-01-12T07:30:05.579Z,13.00
2023-01-12T07:32:32.937Z,13.50
2023-01-12T07:35:00.089Z,13.40
2023-01-12T07:37:27.243Z,11.60
2023-01-12T07:39:54.393Z,12.40
2023-01-12T07:42:24.329Z,11.60
2023-01-12T07:44:52.385Z,12.40
2023-01-12T07:47:19.563Z,13.10
2023-01-12T07:49:46.996Z,13.20
2023-01-12T07:52:14.650Z,12.50
2023-01-12T07:54:41.804Z,11.30
2023-01-12T07:57:12.644Z,13.40
2023-01-12T07:59:39.804Z,13.10
2023-01-12T08:02:07.294Z,13.30
2023-01-12T08:04:34.505Z,13.50
2023-01-12T08:07:01.759Z,12.50
2023-01-12T08:09:28.908Z,12.80
2023-01-12T08:11:56.060Z,13.20
2023-01-12T08:14:33.647Z,13.20
2023-01-12T08:17:02.151Z,12.70
2023-01-12T08:19:39.436Z,13.70
2023-01-12T08:22:10.370Z,11.40
2023-01-12T08:24:46.326Z,11.60
2023-01-12T08:27:13.476Z,11.60
2023-01-12T08:29:45.706Z,11.70
2023-01-12T08:32:13.558Z,11.10
2023-01-12T08:34:41.742Z,11.40
2023-01-12T08:37:10.074Z,11.20
2023-01-12T08:39:37.338Z,11.00
2023-01-12T08:42:04.681Z,11.50
2023-01-12T08:44:34.704Z,11.60
2023-01-12T08:47:02.159Z,12.20
2023-01-12T08:49:29.945Z,12.50
2023-01-12T08:51:57.283Z,11.50
2023-01-12T08:54:24.871Z,11.60
2023-01-12T08:56:54.376Z,11.10
2023-01-12T08:59:21.623Z,11.20
2023-01-12T09:01:49.169Z,11.30
2023-01-12T09:04:16.427Z,11.30
2023-01-12T09:06:44.793Z,10.80
2023-01-12T09:09:13.791Z,11.10
2023-01-12T09:11:41.901Z,11.60
2023-01-12T09:14:09.551Z,11.30
2023-01-12T09:16:36.847Z,10.50
2023-01-12T09:19:04.155Z,10.90
2023-01-12T09:21:31.823Z,11.50
2023-01-12T09:23:59.073Z,11.70
2023-01-12T09:26:31.831Z,11.40
2023-01-12T09:28:59.922Z,11.00
2023-01-12T09:31:27.657Z,11.30
2023-01-12T09:33:54.956Z,10.80
2023-01-12T09:36:24.363Z,10.70
2023-01-12T09:38:51.506Z,11.80
2023-01-12T09:42:05.465Z,11.90
2023-01-12T09:44:52.795Z,12.60
2023-01-12T09:47:44.933Z,12.90
2023-01-12T09:50:18.125Z,12.00
2023-01-12T09:52:57.463Z,12.30
2023-01-12T09:55:26.774Z,12.00
2023-01-12T09:58:19.007Z,12.40
2023-01-12T10:00:51.523Z,11.70
2023-01-12T10:03:31.989Z,12.70
2023-01-12T16:14:22.992Z,17.80
2023-01-12T16:16:50.257Z,17.00
2023-01-12T16:19:21.505Z,16.70
2023-01-12T16:21:48.638Z,16.30
2023-01-12T16:24:15.798Z,16.50
2023-01-12T16:26:43.968Z,17.00
2023-01-12T16:29:11.226Z,17.50
2023-01-12T16:31:39.420Z,17.20
2023-01-12T16:34:06.858Z,16.70
2023-01-12T16:36:35.025Z,16.00
2023-01-12T16:39:02.176Z,16.90
2023-01-12T16:41:29.431Z,17.10
2023-01-12T16:43:58.426Z,18.10
2023-01-12T16:46:25.572Z,18.50
2023-01-12T16:48:55.488Z,17.10
2023-01-12T16:53:51.842Z,15.50
2023-01-12T16:56:18.991Z,15.90
2023-01-12T16:58:48.905Z,16.60
2023-01-12T17:01:18.325Z,17.00
2023-01-12T17:06:16.922Z,14.50
2023-01-12T17:08:44.174Z,14.80
2023-01-12T17:11:12.921Z,15.30
2023-01-12T17:13:40.218Z,16.60
2023-01-12T17:16:10.766Z,17.40
2023-01-12T17:18:38.924Z,17.40
2023-01-12T17:21:12.255Z,16.00
2023-01-12T17:23:40.581Z,14.40
2023-01-12T17:26:09.602Z,15.20
2023-01-12T17:28:36.861Z,16.20
2023-01-12T17:31:12.579Z,16.70
2023-01-12T17:33:39.853Z,16.70
2023-01-12T17:36:08.638Z,17.30
2023-01-12T17:38:36.518Z,15.70
2023-01-12T17:41:08.586Z,14.50
2023-01-12T17:43:37.464Z,16.20
2023-01-12T17:46:07.922Z,16.20
2023-01-12T17:48:35.064Z,17.10
2023-01-12T17:51:06.392Z,16.40
2023-01-12T17:53:33.543Z,17.90
2023-01-12T17:56:04.014Z,16.70
2023-01-12T17:58:31.123Z,14.20
2023-01-12T23:02:26.288Z,11.40
2023-01-12T23:04:53.540Z,10.60
2023-01-12T23:07:20.793Z,10.50
2023-01-12T23:09:47.944Z,10.40
2023-01-12T23:12:15.093Z,11.50
2023-01-12T23:14:42.249Z,11.30
2023-01-12T23:17:09.396Z,11.40
2023-01-12T23:19:36.566Z,11.30
2023-01-12T23:22:03.903Z,11.50
2023-01-12T23:24:31.052Z,12.10
2023-01-12T23:26:58.308Z,11.20
2023-01-12T23:29:25.457Z,11.20
2023-01-12T23:31:52.616Z,13.00
2023-01-12T23:34:19.867Z,11.80
2023-01-12T23:36:47.013Z,13.00
2023-01-12T23:39:14.170Z,11.60
2023-01-12T23:41:41.322Z,12.10
2023-01-12T23:44:09.796Z,11.70
2023-01-12T23:46:38.251Z,11.00
2023-01-12T23:49:05.644Z,12.40
2023-01-12T23:51:33.002Z,11.10
2023-01-12T23:54:00.842Z,11.60
2023-01-12T23:56:29.304Z,11.50
2023-01-12T23:58:56.600Z,12.40
